sensor_id;sensor_type;location;lat;lon;timestamp;P1;durP1;ratioP1;P2;durP2;ratioP2
50651;SDS011;66928;52.086;5.240;2023-06-14T00:01:18;7.7;;;3.6;;
50651;SDS011;66928;52.086;5.240;2023-06-14T00:02:55;3.8;;;3.4;;
50651;SDS011;66928;52.086;5.240;2023-06-14T00:06:07;6.6;;;3.9;;
50651;SDS011;66928;52.086;5.240;2023-06-14T00:07:43;4.5;;;3.6;;
50651;SDS011;66928;52.086;5.240;2023-06-14T00:09:19;6.2;;;3.6;;
50651;SDS011;66928;52.086;5.240;2023-06-14T00:12:32;7.1;;;4.0;;
50651;SDS011;66928;52.086;5.240;2023-06-14T00:14:08;6.8;;;3.9;;
50651;SDS011;66928;52.086;5.240;2023-06-14T00:15:44;6.0;;;3.5;;
50651;SDS011;66928;52.086;5.240;2023-06-14T00:18:57;8.2;;;3.6;;
50651;SDS011;66928;52.086;5.240;2023-06-14T00:20:33;5.7;;;3.7;;
50651;SDS011;66928;52.086;5.240;2023-06-14T00:22:09;8.4;;;3.8;;
50651;SDS011;66928;52.086;5.240;2023-06-14T00:23:45;6.7;;;3.6;;
50651;SDS011;66928;52.086;5.240;2023-06-14T00:26:59;4.61;;;3.4;;
50651;SDS011;66928;52.086;5.240;2023-06-14T00:28:35;6.3;;;3.5;;
50651;SDS011;66928;52.086;5.240;2023-06-14T00:30:11;5.2;;;3.7;;
50651;SDS011;66928;52.086;5.240;2023-06-14T00:33:24;7.0;;;3.5;;
50651;SDS011;66928;52.086;5.240;2023-06-14T00:35:00;5.4;;;3.7;;
50651;SDS011;66928;52.086;5.240;2023-06-14T00:36:36;7.1;;;3.5;;
50651;SDS011;66928;52.086;5.240;2023-06-14T00:39:49;5.4;;;3.5;;
50651;SDS011;66928;52.086;5.240;2023-06-14T00:41:25;4.61;;;3.7;;
50651;SDS011;66928;52.086;5.240;2023-06-14T00:43:01;7.7;;;3.6;;
50651;SDS011;66928;52.086;5.240;2023-06-14T00:44:37;6.0;;;3.5;;
50651;SDS011;66928;52.086;5.240;2023-06-14T00:47:49;5.2;;;3.5;;
50651;SDS011;66928;52.086;5.240;2023-06-14T00:49:28;7.7;;;3.6;;
50651;SDS011;66928;52.086;5.240;2023-06-14T00:51:05;6.3;;;3.8;;
50651;SDS011;66928;52.086;5.240;2023-06-14T00:54:18;4.91;;;3.5;;
50651;SDS011;66928;52.086;5.240;2023-06-14T00:55:54;6.9;;;3.6;;
50651;SDS011;66928;52.086;5.240;2023-06-14T00:57:30;7.1;;;3.4;;
50651;SDS011;66928;52.086;5.240;2023-06-14T01:00:43;6.1;;;3.6;;
50651;SDS011;66928;52.086;5.240;2023-06-14T01:02:19;5.2;;;3.4;;
50651;SDS011;66928;52.086;5.240;2023-06-14T01:03:55;9.5;;;3.9;;
50651;SDS011;66928;52.086;5.240;2023-06-14T01:05:31;7.2;;;3.9;;
50651;SDS011;66928;52.086;5.240;2023-06-14T01:08:57;6.0;;;3.9;;
50651;SDS011;66928;52.086;5.240;2023-06-14T01:10:45;7.3;;;3.7;;
50651;SDS011;66928;52.086;5.240;2023-06-14T01:12:39;5.7;;;3.8;;
50651;SDS011;66928;52.086;5.240;2023-06-14T01:14:24;4.8;;;3.4;;
50651;SDS011;66928;52.086;5.240;2023-06-14T01:16:03;7.3;;;3.7;;
50651;SDS011;66928;52.086;5.240;2023-06-14T01:19:20;6.9;;;3.5;;
50651;SDS011;66928;52.086;5.240;2023-06-14T01:20:59;6.6;;;3.3;;
50651;SDS011;66928;52.086;5.240;2023-06-14T01:22:35;6.3;;;3.5;;
50651;SDS011;66928;52.086;5.240;2023-06-14T01:25:47;6.9;;;3.8;;
50651;SDS011;66928;52.086;5.240;2023-06-14T01:27:24;4.5;;;3.6;;
50651;SDS011;66928;52.086;5.240;2023-06-14T01:29:01;6.1;;;3.3;;
50651;SDS011;66928;52.086;5.240;2023-06-14T01:30:38;5.5;;;3.9;;
50651;SDS011;66928;52.086;5.240;2023-06-14T01:33:53;6.2;;;3.2;;
50651;SDS011;66928;52.086;5.240;2023-06-14T01:35:29;5.3;;;3.5;;
50651;SDS011;66928;52.086;5.240;2023-06-14T01:37:05;5.8;;;3.3;;
50651;SDS011;66928;52.086;5.240;2023-06-14T01:40:20;5.8;;;3.5;;
50651;SDS011;66928;52.086;5.240;2023-06-14T01:43:35;6.4;;;3.6;;
50651;SDS011;66928;52.086;5.240;2023-06-14T01:46:47;7.7;;;3.6;;
50651;SDS011;66928;52.086;5.240;2023-06-14T01:48:25;5.5;;;3.3;;
50651;SDS011;66928;52.086;5.240;2023-06-14T01:50:01;6.0;;;3.4;;
50651;SDS011;66928;52.086;5.240;2023-06-14T01:51:39;7.9;;;3.3;;
50651;SDS011;66928;52.086;5.240;2023-06-14T01:54:52;8.71;;;3.6;;
50651;SDS011;66928;52.086;5.240;2023-06-14T01:56:28;5.7;;;3.3;;
50651;SDS011;66928;52.086;5.240;2023-06-14T01:58:04;5.3;;;3.7;;
50651;SDS011;66928;52.086;5.240;2023-06-14T02:01:16;4.7;;;3.1;;
50651;SDS011;66928;52.086;5.240;2023-06-14T02:02:53;3.9;;;3.3;;
50651;SDS011;66928;52.086;5.240;2023-06-14T02:04:29;5.4;;;3.3;;
50651;SDS011;66928;52.086;5.240;2023-06-14T02:07:41;5.11;;;3.2;;
50651;SDS011;66928;52.086;5.240;2023-06-14T02:09:17;7.3;;;3.5;;
50651;SDS011;66928;52.086;5.240;2023-06-14T02:10:53;6.7;;;3.3;;
50651;SDS011;66928;52.086;5.240;2023-06-14T02:12:29;5.4;;;3.4;;
50651;SDS011;66928;52.086;5.240;2023-06-14T02:15:42;5.6;;;3.6;;
50651;SDS011;66928;52.086;5.240;2023-06-14T02:17:18;6.4;;;3.6;;
50651;SDS011;66928;52.086;5.240;2023-06-14T02:18:54;6.9;;;3.8;;
50651;SDS011;66928;52.086;5.240;2023-06-14T02:22:06;8.81;;;3.9;;
50651;SDS011;66928;52.086;5.240;2023-06-14T02:23:42;7.7;;;3.8;;
50651;SDS011;66928;52.086;5.240;2023-06-14T02:25:19;6.7;;;3.4;;
50651;SDS011;66928;52.086;5.240;2023-06-14T02:28:31;7.1;;;3.3;;
50651;SDS011;66928;52.086;5.240;2023-06-14T02:30:07;5.8;;;3.3;;
50651;SDS011;66928;52.086;5.240;2023-06-14T02:31:45;5.0;;;3.5;;
50651;SDS011;66928;52.086;5.240;2023-06-14T02:33:21;5.5;;;3.3;;
50651;SDS011;66928;52.086;5.240;2023-06-14T02:36:33;5.4;;;3.5;;
50651;SDS011;66928;52.086;5.240;2023-06-14T02:38:10;5.4;;;3.7;;
50651;SDS011;66928;52.086;5.240;2023-06-14T02:39:46;8.5;;;3.8;;
50651;SDS011;66928;52.086;5.240;2023-06-14T02:42:58;5.11;;;3.5;;
50651;SDS011;66928;52.086;5.240;2023-06-14T02:44:34;5.2;;;3.8;;
50651;SDS011;66928;52.086;5.240;2023-06-14T02:46:10;6.2;;;3.3;;
50651;SDS011;66928;52.086;5.240;2023-06-14T02:49:23;4.61;;;3.1;;
50651;SDS011;66928;52.086;5.240;2023-06-14T02:50:59;4.7;;;3.6;;
50651;SDS011;66928;52.086;5.240;2023-06-14T02:52:35;6.4;;;3.4;;
50651;SDS011;66928;52.086;5.240;2023-06-14T02:55:47;6.3;;;3.8;;
50651;SDS011;66928;52.086;5.240;2023-06-14T02:57:23;6.6;;;3.6;;
50651;SDS011;66928;52.086;5.240;2023-06-14T02:59:00;5.0;;;3.5;;
50651;SDS011;66928;52.086;5.240;2023-06-14T03:00:36;4.41;;;3.3;;
50651;SDS011;66928;52.086;5.240;2023-06-14T03:03:48;7.4;;;3.5;;
50651;SDS011;66928;52.086;5.240;2023-06-14T03:05:24;5.3;;;3.2;;
50651;SDS011;66928;52.086;5.240;2023-06-14T03:07:01;6.7;;;3.4;;
50651;SDS011;66928;52.086;5.240;2023-06-14T03:10:13;5.9;;;3.6;;
50651;SDS011;66928;52.086;5.240;2023-06-14T03:11:49;7.4;;;3.3;;
50651;SDS011;66928;52.086;5.240;2023-06-14T03:13:25;7.4;;;3.7;;
50651;SDS011;66928;52.086;5.240;2023-06-14T03:16:38;6.7;;;3.4;;
50651;SDS011;66928;52.086;5.240;2023-06-14T03:18:14;5.8;;;3.4;;
50651;SDS011;66928;52.086;5.240;2023-06-14T03:19:51;7.9;;;3.3;;
50651;SDS011;66928;52.086;5.240;2023-06-14T03:24:39;5.3;;;3.3;;
50651;SDS011;66928;52.086;5.240;2023-06-14T03:26:15;5.11;;;3.4;;
50651;SDS011;66928;52.086;5.240;2023-06-14T03:27:51;6.2;;;3.6;;
50651;SDS011;66928;52.086;5.240;2023-06-14T03:31:03;6.5;;;3.2;;
50651;SDS011;66928;52.086;5.240;2023-06-14T03:32:40;6.6;;;3.3;;
50651;SDS011;66928;52.086;5.240;2023-06-14T03:34:16;6.5;;;3.6;;
50651;SDS011;66928;52.086;5.240;2023-06-14T03:37:28;7.0;;;3.6;;
50651;SDS011;66928;52.086;5.240;2023-06-14T03:39:04;6.3;;;3.3;;
50651;SDS011;66928;52.086;5.240;2023-06-14T03:40:40;7.6;;;3.6;;
50651;SDS011;66928;52.086;5.240;2023-06-14T03:43:53;7.7;;;3.6;;
50651;SDS011;66928;52.086;5.240;2023-06-14T03:45:29;5.6;;;3.2;;
50651;SDS011;66928;52.086;5.240;2023-06-14T03:47:05;3.7;;;3.0;;
50651;SDS011;66928;52.086;5.240;2023-06-14T03:48:41;5.2;;;3.4;;
50651;SDS011;66928;52.086;5.240;2023-06-14T03:51:53;4.8;;;3.4;;
50651;SDS011;66928;52.086;5.240;2023-06-14T03:53:29;3.9;;;3.2;;
50651;SDS011;66928;52.086;5.240;2023-06-14T03:55:06;4.8;;;3.4;;
50651;SDS011;66928;52.086;5.240;2023-06-14T03:58:18;5.5;;;3.2;;
50651;SDS011;66928;52.086;5.240;2023-06-14T03:59:54;5.5;;;3.4;;
50651;SDS011;66928;52.086;5.240;2023-06-14T04:01:30;4.8;;;3.4;;
50651;SDS011;66928;52.086;5.240;2023-06-14T04:04:42;5.11;;;3.3;;
50651;SDS011;66928;52.086;5.240;2023-06-14T04:06:19;5.5;;;3.6;;
50651;SDS011;66928;52.086;5.240;2023-06-14T04:07:55;5.9;;;3.4;;
50651;SDS011;66928;52.086;5.240;2023-06-14T04:11:07;4.91;;;3.4;;
50651;SDS011;66928;52.086;5.240;2023-06-14T04:12:43;4.3;;;3.2;;
50651;SDS011;66928;52.086;5.240;2023-06-14T04:14:19;8.81;;;3.7;;
50651;SDS011;66928;52.086;5.240;2023-06-14T04:15:56;5.4;;;3.2;;
50651;SDS011;66928;52.086;5.240;2023-06-14T04:19:08;6.7;;;3.1;;
50651;SDS011;66928;52.086;5.240;2023-06-14T04:20:44;4.41;;;3.3;;
50651;SDS011;66928;52.086;5.240;2023-06-14T04:22:20;5.4;;;3.2;;
50651;SDS011;66928;52.086;5.240;2023-06-14T04:25:32;5.5;;;3.6;;
50651;SDS011;66928;52.086;5.240;2023-06-14T04:27:08;4.1;;;3.4;;
50651;SDS011;66928;52.086;5.240;2023-06-14T04:28:45;4.5;;;3.0;;
50651;SDS011;66928;52.086;5.240;2023-06-14T04:31:57;4.7;;;3.2;;
50651;SDS011;66928;52.086;5.240;2023-06-14T04:33:33;6.7;;;3.4;;
50651;SDS011;66928;52.086;5.240;2023-06-14T04:35:09;5.8;;;3.4;;
50651;SDS011;66928;52.086;5.240;2023-06-14T04:38:22;6.8;;;3.5;;
50651;SDS011;66928;52.086;5.240;2023-06-14T04:39:58;5.5;;;3.1;;
50651;SDS011;66928;52.086;5.240;2023-06-14T04:41:34;5.5;;;3.3;;
50651;SDS011;66928;52.086;5.240;2023-06-14T04:43:10;4.91;;;3.1;;
50651;SDS011;66928;52.086;5.240;2023-06-14T04:46:22;5.2;;;3.1;;
50651;SDS011;66928;52.086;5.240;2023-06-14T04:47:58;8.0;;;3.3;;
50651;SDS011;66928;52.086;5.240;2023-06-14T04:49:34;4.3;;;3.2;;
50651;SDS011;66928;52.086;5.240;2023-06-14T04:52:47;5.9;;;3.3;;
50651;SDS011;66928;52.086;5.240;2023-06-14T04:54:23;6.8;;;3.2;;
50651;SDS011;66928;52.086;5.240;2023-06-14T04:55:59;7.3;;;3.6;;
50651;SDS011;66928;52.086;5.240;2023-06-14T04:59:11;5.2;;;3.3;;
50651;SDS011;66928;52.086;5.240;2023-06-14T05:00:47;5.7;;;4.0;;
50651;SDS011;66928;52.086;5.240;2023-06-14T05:02:24;6.3;;;3.5;;
50651;SDS011;66928;52.086;5.240;2023-06-14T05:04:01;8.4;;;3.6;;
50651;SDS011;66928;52.086;5.240;2023-06-14T05:07:13;5.6;;;3.4;;
50651;SDS011;66928;52.086;5.240;2023-06-14T05:08:49;4.3;;;3.3;;
50651;SDS011;66928;52.086;5.240;2023-06-14T05:10:25;5.11;;;3.3;;
50651;SDS011;66928;52.086;5.240;2023-06-14T05:13:37;4.61;;;3.2;;
50651;SDS011;66928;52.086;5.240;2023-06-14T05:15:14;4.5;;;3.5;;
50651;SDS011;66928;52.086;5.240;2023-06-14T05:16:50;8.2;;;3.4;;
50651;SDS011;66928;52.086;5.240;2023-06-14T05:20:02;5.6;;;3.4;;
50651;SDS011;66928;52.086;5.240;2023-06-14T05:21:38;7.9;;;3.4;;
50651;SDS011;66928;52.086;5.240;2023-06-14T05:23:14;5.5;;;3.2;;
50651;SDS011;66928;52.086;5.240;2023-06-14T05:26:27;6.2;;;3.5;;
50651;SDS011;66928;52.086;5.240;2023-06-14T05:28:02;7.6;;;3.5;;
50651;SDS011;66928;52.086;5.240;2023-06-14T05:29:39;4.0;;;3.1;;
50651;SDS011;66928;52.086;5.240;2023-06-14T05:31:15;7.1;;;3.7;;
50651;SDS011;66928;52.086;5.240;2023-06-14T05:34:27;5.4;;;3.3;;
50651;SDS011;66928;52.086;5.240;2023-06-14T05:36:03;6.9;;;3.5;;
50651;SDS011;66928;52.086;5.240;2023-06-14T05:37:40;6.9;;;3.6;;
50651;SDS011;66928;52.086;5.240;2023-06-14T05:40:52;6.4;;;3.3;;
50651;SDS011;66928;52.086;5.240;2023-06-14T05:42:28;4.91;;;3.3;;
50651;SDS011;66928;52.086;5.240;2023-06-14T05:44:04;7.0;;;3.4;;
50651;SDS011;66928;52.086;5.240;2023-06-14T05:47:17;4.61;;;3.3;;
50651;SDS011;66928;52.086;5.240;2023-06-14T05:48:53;6.5;;;3.5;;
50651;SDS011;66928;52.086;5.240;2023-06-14T05:50:31;4.41;;;3.2;;
50651;SDS011;66928;52.086;5.240;2023-06-14T05:52:07;8.2;;;3.4;;
50651;SDS011;66928;52.086;5.240;2023-06-14T05:55:20;7.8;;;3.5;;
50651;SDS011;66928;52.086;5.240;2023-06-14T05:56:56;7.7;;;3.3;;
50651;SDS011;66928;52.086;5.240;2023-06-14T05:58:32;5.0;;;3.2;;
50651;SDS011;66928;52.086;5.240;2023-06-14T06:01:46;6.3;;;3.5;;
50651;SDS011;66928;52.086;5.240;2023-06-14T06:03:22;6.9;;;3.4;;
50651;SDS011;66928;52.086;5.240;2023-06-14T06:04:58;4.7;;;3.5;;
50651;SDS011;66928;52.086;5.240;2023-06-14T06:08:10;7.4;;;3.4;;
50651;SDS011;66928;52.086;5.240;2023-06-14T06:09:46;6.8;;;3.4;;
50651;SDS011;66928;52.086;5.240;2023-06-14T06:11:22;7.0;;;3.7;;
50651;SDS011;66928;52.086;5.240;2023-06-14T06:14:35;7.2;;;3.5;;
50651;SDS011;66928;52.086;5.240;2023-06-14T06:16:11;6.5;;;3.8;;
50651;SDS011;66928;52.086;5.240;2023-06-14T06:17:47;5.5;;;3.2;;
50651;SDS011;66928;52.086;5.240;2023-06-14T06:19:23;6.2;;;3.3;;
50651;SDS011;66928;52.086;5.240;2023-06-14T06:22:35;5.2;;;3.4;;
50651;SDS011;66928;52.086;5.240;2023-06-14T06:24:11;5.9;;;3.4;;
50651;SDS011;66928;52.086;5.240;2023-06-14T06:25:48;3.7;;;3.1;;
50651;SDS011;66928;52.086;5.240;2023-06-14T06:29:00;6.4;;;3.2;;
50651;SDS011;66928;52.086;5.240;2023-06-14T06:30:36;4.61;;;3.5;;
50651;SDS011;66928;52.086;5.240;2023-06-14T06:32:12;5.11;;;3.5;;
50651;SDS011;66928;52.086;5.240;2023-06-14T06:35:26;5.6;;;3.3;;
50651;SDS011;66928;52.086;5.240;2023-06-14T06:37:02;5.2;;;3.7;;
50651;SDS011;66928;52.086;5.240;2023-06-14T06:38:38;6.6;;;3.4;;
50651;SDS011;66928;52.086;5.240;2023-06-14T06:40:14;5.6;;;3.7;;
50651;SDS011;66928;52.086;5.240;2023-06-14T06:43:26;7.8;;;3.7;;
50651;SDS011;66928;52.086;5.240;2023-06-14T06:45:03;7.8;;;3.7;;
50651;SDS011;66928;52.086;5.240;2023-06-14T06:46:39;7.3;;;3.5;;
50651;SDS011;66928;52.086;5.240;2023-06-14T06:49:52;8.1;;;3.6;;
50651;SDS011;66928;52.086;5.240;2023-06-14T06:51:28;9.4;;;3.5;;
50651;SDS011;66928;52.086;5.240;2023-06-14T06:53:04;5.0;;;3.9;;
50651;SDS011;66928;52.086;5.240;2023-06-14T06:56:16;5.0;;;3.5;;
50651;SDS011;66928;52.086;5.240;2023-06-14T06:57:53;7.1;;;3.3;;
50651;SDS011;66928;52.086;5.240;2023-06-14T06:59:29;7.1;;;3.5;;
50651;SDS011;66928;52.086;5.240;2023-06-14T07:02:41;5.3;;;3.5;;
50651;SDS011;66928;52.086;5.240;2023-06-14T07:04:17;7.1;;;3.4;;
50651;SDS011;66928;52.086;5.240;2023-06-14T07:05:53;6.2;;;3.3;;
50651;SDS011;66928;52.086;5.240;2023-06-14T07:07:29;6.9;;;3.7;;
50651;SDS011;66928;52.086;5.240;2023-06-14T07:10:42;6.3;;;3.4;;
50651;SDS011;66928;52.086;5.240;2023-06-14T07:12:18;5.2;;;3.4;;
50651;SDS011;66928;52.086;5.240;2023-06-14T07:13:54;6.4;;;3.6;;
50651;SDS011;66928;52.086;5.240;2023-06-14T07:17:06;7.0;;;3.3;;
50651;SDS011;66928;52.086;5.240;2023-06-14T07:18:42;12.0;;;3.7;;
50651;SDS011;66928;52.086;5.240;2023-06-14T07:20:18;6.4;;;3.6;;
50651;SDS011;66928;52.086;5.240;2023-06-14T07:23:31;5.0;;;3.2;;
50651;SDS011;66928;52.086;5.240;2023-06-14T07:25:08;4.91;;;3.3;;
50651;SDS011;66928;52.086;5.240;2023-06-14T07:26:44;5.9;;;3.1;;
50651;SDS011;66928;52.086;5.240;2023-06-14T07:28:20;6.2;;;3.4;;
50651;SDS011;66928;52.086;5.240;2023-06-14T07:31:32;4.8;;;3.4;;
50651;SDS011;66928;52.086;5.240;2023-06-14T07:33:08;5.5;;;3.3;;
50651;SDS011;66928;52.086;5.240;2023-06-14T07:34:45;5.4;;;3.1;;
50651;SDS011;66928;52.086;5.240;2023-06-14T07:37:58;7.4;;;3.2;;
50651;SDS011;66928;52.086;5.240;2023-06-14T07:39:34;7.3;;;3.5;;
50651;SDS011;66928;52.086;5.240;2023-06-14T07:41:10;5.2;;;3.2;;
50651;SDS011;66928;52.086;5.240;2023-06-14T07:44:22;4.41;;;3.3;;
50651;SDS011;66928;52.086;5.240;2023-06-14T07:45:59;7.5;;;3.2;;
50651;SDS011;66928;52.086;5.240;2023-06-14T07:47:35;5.8;;;3.2;;
50651;SDS011;66928;52.086;5.240;2023-06-14T07:50:47;4.5;;;3.4;;
50651;SDS011;66928;52.086;5.240;2023-06-14T07:52:23;4.2;;;3.5;;
50651;SDS011;66928;52.086;5.240;2023-06-14T07:53:59;4.5;;;3.1;;
50651;SDS011;66928;52.086;5.240;2023-06-14T07:55:35;3.4;;;3.0;;
50651;SDS011;66928;52.086;5.240;2023-06-14T07:58:48;4.5;;;3.2;;
50651;SDS011;66928;52.086;5.240;2023-06-14T08:00:24;4.5;;;2.9;;
50651;SDS011;66928;52.086;5.240;2023-06-14T08:02:00;4.41;;;3.1;;
50651;SDS011;66928;52.086;5.240;2023-06-14T08:05:12;5.7;;;3.2;;
50651;SDS011;66928;52.086;5.240;2023-06-14T08:06:49;4.5;;;3.0;;
50651;SDS011;66928;52.086;5.240;2023-06-14T08:08:25;6.5;;;3.3;;
50651;SDS011;66928;52.086;5.240;2023-06-14T08:11:37;6.7;;;2.6;;
50651;SDS011;66928;52.086;5.240;2023-06-14T08:13:14;4.7;;;2.7;;
50651;SDS011;66928;52.086;5.240;2023-06-14T08:14:50;7.0;;;3.3;;
50651;SDS011;66928;52.086;5.240;2023-06-14T08:16:26;4.2;;;3.0;;
50651;SDS011;66928;52.086;5.240;2023-06-14T08:19:38;2.9;;;2.7;;
50651;SDS011;66928;52.086;5.240;2023-06-14T08:21:14;6.1;;;2.7;;
50651;SDS011;66928;52.086;5.240;2023-06-14T08:22:50;4.3;;;2.8;;
50651;SDS011;66928;52.086;5.240;2023-06-14T08:26:04;3.8;;;2.9;;
50651;SDS011;66928;52.086;5.240;2023-06-14T08:27:40;7.0;;;2.8;;
50651;SDS011;66928;52.086;5.240;2023-06-14T08:29:16;7.0;;;2.8;;
50651;SDS011;66928;52.086;5.240;2023-06-14T08:32:28;3.8;;;2.8;;
50651;SDS011;66928;52.086;5.240;2023-06-14T08:34:04;3.9;;;2.8;;
50651;SDS011;66928;52.086;5.240;2023-06-14T08:35:40;6.1;;;2.5;;
50651;SDS011;66928;52.086;5.240;2023-06-14T08:38:53;4.61;;;2.7;;
50651;SDS011;66928;52.086;5.240;2023-06-14T08:40:30;3.0;;;2.4;;
50651;SDS011;66928;52.086;5.240;2023-06-14T08:42:07;4.5;;;2.6;;
50651;SDS011;66928;52.086;5.240;2023-06-14T08:45:22;4.3;;;2.7;;
50651;SDS011;66928;52.086;5.240;2023-06-14T08:47:00;3.6;;;2.5;;
50651;SDS011;66928;52.086;5.240;2023-06-14T08:48:37;4.91;;;2.6;;
50651;SDS011;66928;52.086;5.240;2023-06-14T08:50:14;3.5;;;2.21;;
50651;SDS011;66928;52.086;5.240;2023-06-14T08:53:34;3.8;;;2.5;;
50651;SDS011;66928;52.086;5.240;2023-06-14T08:55:13;3.6;;;2.4;;
50651;SDS011;66928;52.086;5.240;2023-06-14T08:56:50;2.9;;;2.21;;
50651;SDS011;66928;52.086;5.240;2023-06-14T08:58:26;2.8;;;2.4;;
50651;SDS011;66928;52.086;5.240;2023-06-14T09:01:41;3.4;;;2.31;;
50651;SDS011;66928;52.086;5.240;2023-06-14T09:04:54;3.1;;;2.31;;
50651;SDS011;66928;52.086;5.240;2023-06-14T09:08:06;2.7;;;2.21;;
50651;SDS011;66928;52.086;5.240;2023-06-14T09:09:43;3.7;;;2.4;;
50651;SDS011;66928;52.086;5.240;2023-06-14T09:11:19;2.8;;;2.4;;
50651;SDS011;66928;52.086;5.240;2023-06-14T09:12:55;3.5;;;2.4;;
50651;SDS011;66928;52.086;5.240;2023-06-14T09:16:09;3.1;;;2.1;;
50651;SDS011;66928;52.086;5.240;2023-06-14T09:17:45;2.9;;;2.1;;
50651;SDS011;66928;52.086;5.240;2023-06-14T09:19:22;2.5;;;2.21;;
50651;SDS011;66928;52.086;5.240;2023-06-14T09:22:35;4.1;;;2.21;;
50651;SDS011;66928;52.086;5.240;2023-06-14T09:24:13;3.7;;;2.1;;
50651;SDS011;66928;52.086;5.240;2023-06-14T09:25:50;4.5;;;2.1;;
50651;SDS011;66928;52.086;5.240;2023-06-14T09:29:04;2.6;;;2.31;;
50651;SDS011;66928;52.086;5.240;2023-06-14T09:30:41;2.6;;;2.1;;
50651;SDS011;66928;52.086;5.240;2023-06-14T09:32:17;6.9;;;2.31;;
50651;SDS011;66928;52.086;5.240;2023-06-14T09:33:53;2.21;;;2.0;;
50651;SDS011;66928;52.086;5.240;2023-06-14T09:37:06;2.4;;;1.9;;
50651;SDS011;66928;52.086;5.240;2023-06-14T09:38:51;3.1;;;1.8;;
50651;SDS011;66928;52.086;5.240;2023-06-14T09:40:28;4.3;;;2.31;;
50651;SDS011;66928;52.086;5.240;2023-06-14T09:43:52;3.2;;;2.31;;
50651;SDS011;66928;52.086;5.240;2023-06-14T09:45:29;3.9;;;2.0;;
50651;SDS011;66928;52.086;5.240;2023-06-14T09:47:05;3.2;;;2.1;;
50651;SDS011;66928;52.086;5.240;2023-06-14T09:48:42;4.3;;;2.4;;
50651;SDS011;66928;52.086;5.240;2023-06-14T09:51:54;2.7;;;2.1;;
50651;SDS011;66928;52.086;5.240;2023-06-14T09:53:33;2.5;;;2.0;;
50651;SDS011;66928;52.086;5.240;2023-06-14T09:55:12;2.21;;;2.0;;
50651;SDS011;66928;52.086;5.240;2023-06-14T09:58:28;3.5;;;2.21;;
50651;SDS011;66928;52.086;5.240;2023-06-14T10:00:06;3.9;;;2.31;;
50651;SDS011;66928;52.086;5.240;2023-06-14T10:01:44;2.8;;;2.1;;
50651;SDS011;66928;52.086;5.240;2023-06-14T10:03:21;2.8;;;2.1;;
50651;SDS011;66928;52.086;5.240;2023-06-14T10:06:41;2.5;;;2.0;;
50651;SDS011;66928;52.086;5.240;2023-06-14T10:08:23;2.8;;;2.21;;
50651;SDS011;66928;52.086;5.240;2023-06-14T10:10:02;3.0;;;2.4;;
50651;SDS011;66928;52.086;5.240;2023-06-14T10:11:40;5.8;;;2.21;;
50651;SDS011;66928;52.086;5.240;2023-06-14T10:14:53;7.4;;;2.1;;
50651;SDS011;66928;52.086;5.240;2023-06-14T10:16:32;3.8;;;1.9;;
50651;SDS011;66928;52.086;5.240;2023-06-14T10:18:14;3.3;;;2.31;;
50651;SDS011;66928;52.086;5.240;2023-06-14T10:20:02;3.5;;;2.0;;
50651;SDS011;66928;52.086;5.240;2023-06-14T10:23:37;6.1;;;2.21;;
50651;SDS011;66928;52.086;5.240;2023-06-14T10:25:25;3.1;;;2.21;;
50651;SDS011;66928;52.086;5.240;2023-06-14T10:27:10;3.3;;;2.0;;
50651;SDS011;66928;52.086;5.240;2023-06-14T10:28:58;4.7;;;2.1;;
50651;SDS011;66928;52.086;5.240;2023-06-14T10:30:35;2.7;;;2.0;;
50651;SDS011;66928;52.086;5.240;2023-06-14T10:33:48;2.7;;;2.0;;
50651;SDS011;66928;52.086;5.240;2023-06-14T10:35:26;4.1;;;2.1;;
50651;SDS011;66928;52.086;5.240;2023-06-14T10:37:03;4.41;;;2.31;;
50651;SDS011;66928;52.086;5.240;2023-06-14T10:40:29;5.11;;;1.9;;
50651;SDS011;66928;52.086;5.240;2023-06-14T10:42:06;3.4;;;2.0;;
50651;SDS011;66928;52.086;5.240;2023-06-14T10:43:43;3.2;;;2.0;;
50651;SDS011;66928;52.086;5.240;2023-06-14T10:45:19;3.2;;;2.1;;
50651;SDS011;66928;52.086;5.240;2023-06-14T10:48:39;3.6;;;2.1;;
50651;SDS011;66928;52.086;5.240;2023-06-14T10:50:16;2.6;;;2.1;;
50651;SDS011;66928;52.086;5.240;2023-06-14T10:51:52;2.5;;;2.1;;
50651;SDS011;66928;52.086;5.240;2023-06-14T10:53:39;3.3;;;2.0;;
50651;SDS011;66928;52.086;5.240;2023-06-14T10:56:53;4.7;;;2.0;;
50651;SDS011;66928;52.086;5.240;2023-06-14T10:58:29;3.6;;;2.0;;
50651;SDS011;66928;52.086;5.240;2023-06-14T11:00:06;3.8;;;2.0;;
50651;SDS011;66928;52.086;5.240;2023-06-14T11:01:47;3.3;;;1.9;;
50651;SDS011;66928;52.086;5.240;2023-06-14T11:05:26;3.3;;;2.21;;
50651;SDS011;66928;52.086;5.240;2023-06-14T11:07:08;2.6;;;2.1;;
50651;SDS011;66928;52.086;5.240;2023-06-14T11:09:11;2.9;;;2.4;;
50651;SDS011;66928;52.086;5.240;2023-06-14T11:12:07;2.8;;;2.0;;
50651;SDS011;66928;52.086;5.240;2023-06-14T11:13:45;2.1;;;1.9;;
50651;SDS011;66928;52.086;5.240;2023-06-14T11:15:27;6.3;;;2.1;;
50651;SDS011;66928;52.086;5.240;2023-06-14T11:17:04;2.7;;;2.1;;
50651;SDS011;66928;52.086;5.240;2023-06-14T11:18:41;2.6;;;2.1;;
50651;SDS011;66928;52.086;5.240;2023-06-14T11:21:55;6.0;;;2.31;;
50651;SDS011;66928;52.086;5.240;2023-06-14T11:23:31;2.4;;;1.8;;
50651;SDS011;66928;52.086;5.240;2023-06-14T11:25:08;4.8;;;1.9;;
50651;SDS011;66928;52.086;5.240;2023-06-14T11:28:23;2.21;;;1.9;;
50651;SDS011;66928;52.086;5.240;2023-06-14T11:29:59;4.61;;;1.8;;
50651;SDS011;66928;52.086;5.240;2023-06-14T11:31:35;2.7;;;1.9;;
50651;SDS011;66928;52.086;5.240;2023-06-14T11:33:11;2.9;;;1.9;;
50651;SDS011;66928;52.086;5.240;2023-06-14T11:36:28;2.8;;;2.21;;
50651;SDS011;66928;52.086;5.240;2023-06-14T11:38:06;4.5;;;2.0;;
50651;SDS011;66928;52.086;5.240;2023-06-14T11:39:43;2.0;;;1.9;;
50651;SDS011;66928;52.086;5.240;2023-06-14T11:43:00;2.6;;;2.31;;
50651;SDS011;66928;52.086;5.240;2023-06-14T11:44:37;3.7;;;2.31;;
50651;SDS011;66928;52.086;5.240;2023-06-14T11:46:13;3.3;;;1.9;;
50651;SDS011;66928;52.086;5.240;2023-06-14T11:47:50;2.4;;;2.0;;
50651;SDS011;66928;52.086;5.240;2023-06-14T11:51:02;2.9;;;2.21;;
50651;SDS011;66928;52.086;5.240;2023-06-14T11:52:39;3.0;;;2.1;;
50651;SDS011;66928;52.086;5.240;2023-06-14T11:54:15;4.1;;;2.31;;
50651;SDS011;66928;52.086;5.240;2023-06-14T11:57:27;3.3;;;2.31;;
50651;SDS011;66928;52.086;5.240;2023-06-14T11:59:03;3.5;;;2.0;;
50651;SDS011;66928;52.086;5.240;2023-06-14T12:00:39;2.4;;;2.0;;
50651;SDS011;66928;52.086;5.240;2023-06-14T12:03:53;3.8;;;2.21;;
50651;SDS011;66928;52.086;5.240;2023-06-14T12:05:32;2.5;;;2.21;;
50651;SDS011;66928;52.086;5.240;2023-06-14T12:07:09;4.1;;;1.9;;
50651;SDS011;66928;52.086;5.240;2023-06-14T12:08:45;2.5;;;2.31;;
50651;SDS011;66928;52.086;5.240;2023-06-14T12:11:59;2.1;;;1.9;;
50651;SDS011;66928;52.086;5.240;2023-06-14T12:13:37;2.4;;;2.21;;
50651;SDS011;66928;52.086;5.240;2023-06-14T12:15:13;3.5;;;2.31;;
50651;SDS011;66928;52.086;5.240;2023-06-14T12:18:33;3.9;;;2.31;;
50651;SDS011;66928;52.086;5.240;2023-06-14T12:20:11;3.9;;;2.31;;
50651;SDS011;66928;52.086;5.240;2023-06-14T12:21:49;4.0;;;2.31;;
50651;SDS011;66928;52.086;5.240;2023-06-14T12:23:25;2.7;;;2.21;;
50651;SDS011;66928;52.086;5.240;2023-06-14T12:26:38;2.8;;;2.21;;
50651;SDS011;66928;52.086;5.240;2023-06-14T12:28:15;2.21;;;2.0;;
50651;SDS011;66928;52.086;5.240;2023-06-14T12:29:58;2.7;;;2.21;;
50651;SDS011;66928;52.086;5.240;2023-06-14T12:33:11;4.61;;;2.21;;
50651;SDS011;66928;52.086;5.240;2023-06-14T12:34:47;3.0;;;2.1;;
50651;SDS011;66928;52.086;5.240;2023-06-14T12:36:24;4.1;;;2.0;;
50651;SDS011;66928;52.086;5.240;2023-06-14T12:38:01;3.5;;;1.9;;
50651;SDS011;66928;52.086;5.240;2023-06-14T12:41:13;4.8;;;2.31;;
50651;SDS011;66928;52.086;5.240;2023-06-14T12:42:49;2.1;;;2.0;;
50651;SDS011;66928;52.086;5.240;2023-06-14T12:44:25;2.6;;;1.8;;
50651;SDS011;66928;52.086;5.240;2023-06-14T12:47:37;4.2;;;2.0;;
50651;SDS011;66928;52.086;5.240;2023-06-14T12:49:13;2.9;;;2.1;;
50651;SDS011;66928;52.086;5.240;2023-06-14T12:50:50;4.3;;;1.9;;
50651;SDS011;66928;52.086;5.240;2023-06-14T12:54:02;2.31;;;1.8;;
50651;SDS011;66928;52.086;5.240;2023-06-14T12:55:38;3.9;;;1.9;;
50651;SDS011;66928;52.086;5.240;2023-06-14T12:57:14;2.9;;;2.0;;
50651;SDS011;66928;52.086;5.240;2023-06-14T12:58:50;2.9;;;1.8;;
50651;SDS011;66928;52.086;5.240;2023-06-14T13:02:11;1.8;;;1.7;;
50651;SDS011;66928;52.086;5.240;2023-06-14T13:03:49;2.1;;;1.8;;